Time;durP1;ratioP1;P1;durP2;ratioP2;P2;SDS_P1;SDS_P2;PMS_P1;PMS_P2;Temp;Humidity;BMP_temperature;BMP_pressure;BME280_temperature;BME280_humidity;BME280_pressure;Samples;Min_cycle;Max_cycle;Signal;HPM_P1;HPM_P2
2022/08/12 00:47:22;;;;;;;1.90;1.40;;;25.30;51.90;;;;;;221599;1265;23442;-61
2022/08/12 00:52:27;;;;;;;1.80;1.20;;;25.30;52.00;;;;;;221256;1264;22989;-59
2022/08/12 00:57:35;;;;;;;2.80;1.70;;;25.30;51.90;;;;;;221471;1265;22543;-59
2022/08/12 01:02:45;;;;;;;3.20;1.90;;;25.30;52.00;;;;;;221376;1265;22563;-60
2022/08/12 01:13:13;;;;;;;2.50;1.30;;;25.30;52.00;;;;;;221246;1265;22535;-61
2022/08/12 01:18:25;;;;;;;2.70;1.70;;;25.20;51.90;;;;;;221388;1265;24405;-59
2022/08/12 01:24:03;;;;;;;2.20;1.40;;;25.30;52.00;;;;;;221604;1264;22692;-59
2022/08/12 01:29:28;;;;;;;2.00;1.30;;;25.20;51.90;;;;;;221049;1265;25408;-58
2022/08/12 01:34:38;;;;;;;2.00;1.30;;;25.20;51.90;;;;;;221384;1265;23087;-59
2022/08/12 01:39:56;;;;;;;2.10;1.40;;;25.20;52.20;;;;;;221018;1265;22548;-63
2022/08/12 01:45:23;;;;;;;2.50;1.40;;;25.20;51.90;;;;;;221245;1265;22550;-62
2022/08/12 01:51:00;;;;;;;2.10;1.20;;;25.20;51.90;;;;;;221133;1265;22599;-58
2022/08/12 01:56:09;;;;;;;2.80;1.50;;;25.20;52.00;;;;;;221409;1262;22689;-59
2022/08/12 02:01:12;;;;;;;1.80;1.30;;;25.20;52.00;;;;;;221401;1262;22653;-59
2022/08/12 02:11:52;;;;;;;1.60;1.10;;;25.20;52.00;;;;;;221246;1261;22545;-60
2022/08/12 02:17:12;;;;;;;2.10;1.40;;;25.20;52.00;;;;;;221438;1265;22684;-61
2022/08/12 02:22:37;;;;;;;2.40;1.20;;;25.20;52.00;;;;;;221267;1265;22643;-59
2022/08/12 02:27:44;;;;;;;1.80;1.20;;;25.10;52.00;;;;;;221008;1265;22618;-61
2022/08/12 02:32:55;;;;;;;2.50;1.40;;;25.10;51.90;;;;;;221346;1262;24249;-61
2022/08/12 02:38:07;;;;;;;1.70;1.10;;;25.10;51.90;;;;;;221218;1261;25414;-58
2022/08/12 02:43:31;;;;;;;2.30;1.30;;;25.10;51.90;;;;;;221277;1265;22696;-59
2022/08/12 02:48:37;;;;;;;2.20;1.40;;;25.10;51.90;;;;;;221384;1265;25235;-57
2022/08/12 02:53:40;;;;;;;2.00;1.30;;;25.10;52.00;;;;;;221189;1265;22668;-58
2022/08/12 02:58:45;;;;;;;3.50;1.40;;;25.10;52.00;;;;;;221076;1265;23946;-58
2022/08/12 03:03:51;;;;;;;2.40;1.30;;;25.10;52.30;;;;;;221164;1265;26612;-58
2022/08/12 03:08:57;;;;;;;1.60;1.20;;;25.10;52.00;;;;;;221187;1265;22703;-58
2022/08/12 03:14:02;;;;;;;2.10;1.20;;;25.10;52.10;;;;;;221176;1265;22537;-58
2022/08/12 03:19:07;;;;;;;2.50;1.30;;;25.10;52.00;;;;;;221200;1265;23819;-58
2022/08/12 03:24:16;;;;;;;2.00;1.20;;;25.10;52.00;;;;;;221119;1265;22529;-58
2022/08/12 03:29:21;;;;;;;2.00;1.30;;;25.10;52.00;;;;;;221153;1265;25371;-58
2022/08/12 03:34:28;;;;;;;2.10;1.20;;;25.00;52.30;;;;;;221158;1265;25309;-57
2022/08/12 04:00:51;;;;;;;2.10;1.30;;;25.00;52.40;;;;;;221279;1264;22573;-58
2022/08/12 04:05:54;;;;;;;2.00;1.30;;;25.00;52.10;;;;;;221197;1262;22569;-60
2022/08/12 04:16:19;;;;;;;2.20;1.30;;;25.00;52.10;;;;;;221315;1262;22547;-59
2022/08/12 04:21:22;;;;;;;2.10;1.30;;;24.90;52.70;;;;;;221285;1262;25250;-59
2022/08/12 04:26:26;;;;;;;2.60;1.20;;;24.90;52.10;;;;;;221174;1262;22563;-59
2022/08/12 04:31:33;;;;;;;2.70;1.20;;;24.90;52.10;;;;;;221389;1262;24206;-58
2022/08/12 04:36:37;;;;;;;2.50;1.20;;;24.90;52.40;;;;;;221272;1265;23496;-60
2022/08/12 04:41:41;;;;;;;1.80;1.30;;;25.00;52.20;;;;;;221328;1262;23274;-59
2022/08/12 04:47:00;;;;;;;3.40;1.50;;;24.90;52.10;;;;;;221208;1262;22613;-61
2022/08/12 04:52:03;;;;;;;2.30;1.40;;;24.90;52.40;;;;;;221386;1262;25476;-57
2022/08/12 04:57:08;;;;;;;2.30;1.20;;;24.90;52.50;;;;;;220354;1264;1315828;-58
2022/08/12 05:02:10;;;;;;;1.60;1.10;;;24.90;52.10;;;;;;221836;1262;22528;-63
2022/08/12 05:07:22;;;;;;;2.00;1.30;;;24.90;52.10;;;;;;221380;1262;23936;-58
2022/08/12 05:12:33;;;;;;;2.10;1.10;;;24.90;52.40;;;;;;221296;1262;23938;-59
2022/08/12 05:17:35;;;;;;;1.60;1.10;;;24.90;52.50;;;;;;221304;1262;22554;-60
2022/08/12 05:22:43;;;;;;;1.90;1.20;;;24.90;52.10;;;;;;221445;1262;23017;-60
2022/08/12 05:27:46;;;;;;;2.70;1.50;;;24.90;52.40;;;;;;221255;1262;23517;-59
2022/08/12 05:33:05;;;;;;;1.70;1.10;;;25.00;52.10;;;;;;221428;1262;22537;-61
2022/08/12 05:43:39;;;;;;;2.10;1.40;;;24.90;52.00;;;;;;221684;1262;22553;-62
2022/08/12 05:48:41;;;;;;;1.70;1.20;;;25.00;52.00;;;;;;221509;1263;22551;-60
2022/08/12 05:53:44;;;;;;;2.00;1.30;;;25.00;52.00;;;;;;221043;1265;24452;-59
2022/08/12 05:58:47;;;;;;;1.70;1.20;;;25.00;51.90;;;;;;221270;1263;22715;-57
2022/08/12 06:03:51;;;;;;;2.30;1.30;;;25.00;52.00;;;;;;221110;1262;22559;-61
2022/08/12 06:08:54;;;;;;;4.50;1.30;;;25.00;51.90;;;;;;221029;1263;22653;-60
2022/08/12 06:13:57;;;;;;;5.50;1.20;;;25.00;52.00;;;;;;221412;1262;22825;-58
2022/08/12 06:19:00;;;;;;;3.00;1.70;;;25.00;52.00;;;;;;221262;1262;24408;-60
2022/08/12 06:24:03;;;;;;;2.10;1.30;;;25.10;52.00;;;;;;221384;1262;25377;-60
2022/08/12 06:29:06;;;;;;;2.20;1.30;;;25.10;52.10;;;;;;221175;1262;22567;-59
2022/08/12 06:34:09;;;;;;;2.40;1.40;;;25.10;52.10;;;;;;221145;1263;22964;-60
2022/08/12 06:39:32;;;;;;;5.30;1.50;;;25.10;52.10;;;;;;221098;1262;24047;-60
2022/08/12 06:44:34;;;;;;;6.60;1.50;;;25.10;52.50;;;;;;221157;1262;22525;-58
2022/08/12 06:49:39;;;;;;;4.30;1.30;;;25.10;52.30;;;;;;220998;1262;24328;-58
2022/08/12 06:54:49;;;;;;;2.10;1.40;;;25.10;52.30;;;;;;221441;1261;22542;-59
2022/08/12 06:59:52;;;;;;;2.30;1.30;;;25.20;52.20;;;;;;221261;1261;24257;-60
2022/08/12 07:04:55;;;;;;;3.40;1.20;;;25.20;52.40;;;;;;221329;1262;22538;-59
2022/08/12 07:09:57;;;;;;;6.00;1.30;;;25.20;52.50;;;;;;221136;1261;22542;-58
2022/08/12 07:15:17;;;;;;;4.10;1.50;;;25.20;53.00;;;;;;221284;1262;24419;-57
2022/08/12 07:20:30;;;;;;;3.10;1.30;;;25.30;53.20;;;;;;221358;1262;25241;-57
2022/08/12 07:25:53;;;;;;;2.90;1.50;;;25.20;52.80;;;;;;221209;1262;22709;-57
2022/08/12 07:31:08;;;;;;;5.40;1.40;;;25.30;52.60;;;;;;221200;1262;22556;-58
2022/08/12 07:36:13;;;;;;;3.50;1.50;;;25.30;52.90;;;;;;221432;1262;24258;-58
2022/08/12 07:41:30;;;;;;;3.40;1.70;;;25.30;52.70;;;;;;221401;1262;22532;-57
2022/08/12 07:46:39;;;;;;;3.00;1.70;;;25.30;53.30;;;;;;221410;1262;24261;-57
2022/08/12 07:51:44;;;;;;;3.20;1.50;;;25.40;53.60;;;;;;221579;1265;22802;-55
2022/08/12 07:56:47;;;;;;;2.70;1.30;;;25.30;54.00;;;;;;221370;1262;22534;-64
2022/08/12 08:01:51;;;;;;;3.80;1.70;;;25.40;55.20;;;;;;221397;1261;25247;-57
2022/08/12 08:06:56;;;;;;;4.90;1.80;;;25.40;55.50;;;;;;221429;1261;22553;-57
2022/08/12 08:17:25;;;;;;;4.10;1.60;;;25.40;55.30;;;;;;221480;1262;22568;-55
2022/08/12 08:22:37;;;;;;;4.40;1.80;;;25.50;54.10;;;;;;221472;1262;23087;-57
2022/08/12 08:27:49;;;;;;;9.90;2.30;;;25.50;54.60;;;;;;221646;1262;22760;-58
2022/08/12 08:33:11;;;;;;;17.30;2.50;;;25.50;54.50;;;;;;221611;1263;22709;-57
2022/08/12 08:39:19;;;;;;;5.30;1.80;;;25.60;54.80;;;;;;221710;1262;22528;-60
2022/08/12 08:45:11;;;;;;;7.70;2.00;;;25.60;54.50;;;;;;221189;1261;22543;-56
2022/08/12 08:50:32;;;;;;;12.10;2.40;;;25.70;54.70;;;;;;221332;1262;24302;-57
2022/08/12 08:55:48;;;;;;;9.50;1.90;;;25.80;54.70;;;;;;221619;1262;24396;-57
2022/08/12 09:01:20;;;;;;;6.20;2.00;;;25.80;54.70;;;;;;221274;1262;26461;-58
2022/08/12 09:06:31;;;;;;;7.80;2.30;;;25.80;55.20;;;;;;221335;1262;25310;-55
2022/08/12 09:17:33;;;;;;;7.10;2.80;;;25.80;55.10;;;;;;220885;1262;23909;-55
2022/08/12 09:23:01;;;;;;;6.60;2.00;;;25.90;55.30;;;;;;221308;1262;22630;-54
2022/08/12 09:28:27;;;;;;;8.70;2.50;;;26.00;54.90;;;;;;221297;1261;22590;-47
2022/08/12 09:33:46;;;;;;;9.50;2.40;;;26.00;54.70;;;;;;223526;1261;22630;-53
2022/08/12 09:39:08;;;;;;;15.40;2.60;;;26.00;54.50;;;;;;222122;1261;22548;-52
2022/08/12 09:50:15;;;;;;;14.50;2.90;;;26.10;54.80;;;;;;221657;1262;22564;-54
2022/08/12 09:55:21;;;;;;;17.20;3.10;;;26.10;55.00;;;;;;221352;1262;24291;-53
2022/08/12 10:00:46;;;;;;;15.80;2.70;;;26.20;55.00;;;;;;221349;1261;22529;-56
2022/08/12 10:06:01;;;;;;;12.60;3.00;;;26.20;54.60;;;;;;221231;1262;22571;-55
2022/08/12 10:17:13;;;;;;;11.80;3.90;;;26.30;54.60;;;;;;221353;1262;22560;-54
2022/08/12 10:22:20;;;;;;;17.30;2.50;;;26.30;54.00;;;;;;221352;1262;22558;-57
2022/08/12 10:33:08;;;;;;;10.60;2.60;;;26.40;53.90;;;;;;221239;1261;23773;-53
2022/08/12 10:38:23;;;;;;;7.90;2.60;;;26.30;54.10;;;;;;221241;1262;22618;-54
2022/08/12 10:43:41;;;;;;;5.20;2.30;;;26.40;53.70;;;;;;221035;1262;24299;-55
2022/08/12 10:49:00;;;;;;;8.00;2.80;;;26.40;53.60;;;;;;221330;1262;23312;-55
2022/08/12 10:54:26;;;;;;;7.40;2.50;;;26.40;53.40;;;;;;221439;1262;24270;-55
2022/08/12 10:59:30;;;;;;;7.30;3.40;;;26.50;53.50;;;;;;221279;1261;24323;-56
2022/08/12 11:04:57;;;;;;;8.60;3.00;;;26.60;55.50;;;;;;221383;1262;24408;-54
2022/08/12 11:10:00;;;;;;;5.90;2.60;;;26.70;56.20;;;;;;221350;1262;22550;-56
2022/08/12 11:15:05;;;;;;;7.70;3.00;;;26.70;54.40;;;;;;221277;1262;24858;-56
2022/08/12 11:20:23;;;;;;;4.50;2.50;;;26.70;53.90;;;;;;221284;1262;25244;-55
2022/08/12 11:25:32;;;;;;;9.40;3.20;;;26.70;54.20;;;;;;221522;1262;22528;-52
2022/08/12 11:30:55;;;;;;;6.00;2.90;;;26.70;54.30;;;;;;221229;1262;22653;-55
2022/08/12 11:36:06;;;;;;;8.70;2.80;;;26.70;54.50;;;;;;221118;1262;24560;-52
2022/08/12 11:41:18;;;;;;;8.80;2.70;;;26.70;54.20;;;;;;221347;1262;24328;-56
2022/08/12 11:46:35;;;;;;;5.10;2.50;;;26.70;54.20;;;;;;221094;1262;25252;-51
2022/08/12 11:51:38;;;;;;;5.40;2.90;;;26.70;53.90;;;;;;221458;1262;24199;-54
2022/08/12 11:56:41;;;;;;;5.80;2.30;;;26.80;54.30;;;;;;221247;1262;24230;-53
2022/08/12 12:02:01;;;;;;;5.90;2.80;;;26.80;54.00;;;;;;221205;1262;22543;-57
2022/08/12 12:07:07;;;;;;;6.70;2.70;;;26.80;53.80;;;;;;221482;1262;24369;-55
2022/08/12 12:12:13;;;;;;;5.20;2.60;;;26.80;53.70;;;;;;221330;1262;23035;-53
2022/08/12 12:17:16;;;;;;;8.30;3.10;;;26.80;53.80;;;;;;221575;1262;25296;-54
2022/08/12 12:22:20;;;;;;;4.40;2.50;;;26.80;53.80;;;;;;221350;1262;22803;-51
2022/08/12 12:27:42;;;;;;;4.20;2.80;;;26.80;53.80;;;;;;221294;1262;25354;-53
2022/08/12 12:33:05;;;;;;;4.50;2.40;;;26.80;54.30;;;;;;221356;1262;22525;-55
2022/08/12 12:38:10;;;;;;;5.30;3.00;;;26.80;53.70;;;;;;221402;1262;24085;-53
2022/08/12 12:43:15;;;;;;;3.80;2.50;;;26.80;54.10;;;;;;221237;1262;26490;-54
2022/08/12 12:48:20;;;;;;;4.00;2.40;;;26.80;53.80;;;;;;221415;1262;25247;-51
2022/08/12 12:53:22;;;;;;;4.00;2.20;;;26.80;53.80;;;;;;221552;1262;26582;-55
2022/08/12 12:58:48;;;;;;;5.20;2.60;;;26.80;53.70;;;;;;221359;1262;22710;-51
2022/08/12 13:03:55;;;;;;;3.40;2.40;;;26.80;53.60;;;;;;221330;1262;22615;-53
2022/08/12 13:09:02;;;;;;;4.00;2.20;;;26.80;53.50;;;;;;221347;1262;22539;-53
2022/08/12 13:14:07;;;;;;;6.40;3.00;;;26.80;53.80;;;;;;221343;1262;24285;-52
2022/08/12 13:19:15;;;;;;;5.70;2.70;;;26.80;53.60;;;;;;221126;1262;25467;-54
2022/08/12 13:24:24;;;;;;;;;;;26.80;53.90;;;;;;221174;1262;24274;-52
2022/08/12 13:29:35;;;;;;;4.10;2.30;;;26.90;53.60;;;;;;221388;1262;24369;-53
2022/08/12 13:34:37;;;;;;;4.20;2.20;;;26.90;53.90;;;;;;221500;1261;22971;-54
2022/08/12 13:39:39;;;;;;;4.90;2.20;;;26.80;53.50;;;;;;221299;1262;24033;-55
2022/08/12 13:44:42;;;;;;;4.30;2.10;;;26.90;53.50;;;;;;221581;1262;22540;-52
2022/08/12 13:49:45;;;;;;;4.70;1.90;;;26.90;53.50;;;;;;221414;1262;22700;-51
2022/08/12 13:54:57;;;;;;;3.80;2.10;;;26.90;53.40;;;;;;221104;1262;22535;-52
2022/08/12 13:59:59;;;;;;;5.50;2.60;;;26.90;53.40;;;;;;221285;1262;24286;-53
2022/08/12 14:05:16;;;;;;;4.50;2.40;;;26.90;53.40;;;;;;221582;1262;25349;-52
2022/08/12 14:10:47;;;;;;;4.20;2.60;;;26.90;53.60;;;;;;221306;1265;24362;-56
2022/08/12 14:16:02;;;;;;;3.80;2.20;;;26.90;53.30;;;;;;221353;1262;24260;-52
2022/08/12 14:21:09;;;;;;;3.00;2.00;;;26.90;53.60;;;;;;221328;1265;26478;-55
2022/08/12 14:26:23;;;;;;;3.60;2.10;;;26.90;52.90;;;;;;221445;1262;24236;-53
2022/08/12 14:31:25;;;;;;;3.50;2.20;;;26.90;53.20;;;;;;221410;1265;24354;-54
2022/08/12 14:36:33;;;;;;;3.10;2.20;;;26.90;53.20;;;;;;221463;1262;25255;-54
2022/08/12 14:41:36;;;;;;;3.60;2.30;;;26.90;53.20;;;;;;221103;1265;25420;-55
2022/08/12 14:46:59;;;;;;;3.20;2.10;;;26.90;53.20;;;;;;221195;1262;22691;-51
2022/08/12 14:52:01;;;;;;;2.90;1.80;;;26.90;53.20;;;;;;221463;1262;22617;-55
2022/08/12 14:57:24;;;;;;;4.50;2.20;;;26.90;53.20;;;;;;221561;1262;22582;-52
2022/08/12 15:02:48;;;;;;;3.60;2.30;;;26.90;53.20;;;;;;221364;1262;22532;-56
2022/08/12 15:07:51;;;;;;;3.90;2.20;;;26.90;53.20;;;;;;221442;1263;24216;-54
2022/08/12 15:13:07;;;;;;;5.00;2.40;;;26.90;53.50;;;;;;221432;1261;22551;-54
2022/08/12 15:18:12;;;;;;;3.50;2.20;;;26.90;53.20;;;;;;221096;1262;24292;-51
2022/08/12 15:23:15;;;;;;;2.80;2.00;;;26.90;53.20;;;;;;221206;1262;22619;-54
2022/08/12 15:28:21;;;;;;;3.80;2.10;;;26.90;53.30;;;;;;221322;1262;25241;-54
2022/08/12 15:33:27;;;;;;;3.00;2.10;;;26.90;53.20;;;;;;221379;1262;23847;-54
2022/08/12 15:38:48;;;;;;;3.60;2.00;;;26.80;53.50;;;;;;221092;1262;25364;-55
2022/08/12 15:43:55;;;;;;;4.70;2.20;;;26.80;52.80;;;;;;221500;1262;22527;-52
2022/08/12 15:49:17;;;;;;;3.60;2.30;;;26.90;53.20;;;;;;221240;1262;22556;-53
2022/08/12 15:54:22;;;;;;;3.00;2.00;;;26.80;53.20;;;;;;221354;1262;22548;-51
2022/08/12 15:59:37;;;;;;;3.10;2.20;;;26.90;53.30;;;;;;221304;1262;24358;-50
2022/08/12 16:05:00;;;;;;;3.20;2.40;;;26.90;53.40;;;;;;221610;1262;22630;-56
2022/08/12 16:10:05;;;;;;;2.80;2.30;;;26.80;53.80;;;;;;221580;1262;25245;-55
2022/08/12 16:15:13;;;;;;;5.00;2.40;;;26.80;53.50;;;;;;221391;1262;22550;-52
2022/08/12 16:20:21;;;;;;;3.60;2.10;;;26.80;53.50;;;;;;221518;1262;24398;-52
2022/08/12 16:25:36;;;;;;;2.90;1.90;;;26.80;53.50;;;;;;221324;1265;23055;-54
2022/08/12 16:30:58;;;;;;;2.80;2.10;;;26.80;53.50;;;;;;221193;1261;23101;-54
2022/08/12 16:36:04;;;;;;;4.40;2.10;;;26.80;53.50;;;;;;221483;1262;22880;-54
2022/08/12 16:41:12;;;;;;;5.50;2.60;;;26.80;53.40;;;;;;221477;1262;22547;-51
2022/08/12 16:46:15;;;;;;;3.50;2.00;;;26.80;53.50;;;;;;221442;1262;22650;-50
2022/08/12 16:51:34;;;;;;;4.30;2.30;;;26.80;53.70;;;;;;221568;1262;22638;-54
2022/08/12 16:56:52;;;;;;;3.80;2.10;;;26.80;53.70;;;;;;220441;1262;1395558;-53
2022/08/12 17:01:59;;;;;;;2.60;2.20;;;26.80;53.30;;;;;;221261;1263;24257;-54
2022/08/12 17:07:09;;;;;;;4.70;2.60;;;26.70;53.10;;;;;;221355;1262;22544;-55
2022/08/12 17:12:17;;;;;;;3.00;2.00;;;26.80;53.40;;;;;;221391;1262;24942;-55
2022/08/12 17:17:22;;;;;;;4.10;2.60;;;26.70;53.30;;;;;;221583;1262;25364;-54
2022/08/12 17:22:42;;;;;;;3.80;2.40;;;26.70;53.40;;;;;;221429;1262;22547;-53
2022/08/12 17:27:49;;;;;;;4.10;2.60;;;26.70;53.00;;;;;;221244;1262;22557;-53
2022/08/12 17:33:01;;;;;;;3.60;2.20;;;26.70;52.90;;;;;;221171;1265;22629;-52
2022/08/12 17:38:08;;;;;;;2.80;2.20;;;26.70;53.00;;;;;;221150;1262;24289;-54
2022/08/12 17:43:15;;;;;;;3.50;2.50;;;26.70;52.90;;;;;;221188;1265;22547;-53
2022/08/12 17:48:39;;;;;;;3.70;2.20;;;26.70;52.90;;;;;;221185;1265;24283;-54
2022/08/12 17:53:58;;;;;;;4.20;2.70;;;26.70;53.00;;;;;;221296;1265;24240;-53
2022/08/12 17:59:17;;;;;;;4.00;2.40;;;26.70;52.80;;;;;;221315;1265;23900;-52
2022/08/12 18:04:44;;;;;;;2.60;2.10;;;26.70;53.20;;;;;;221401;1262;22528;-54
2022/08/12 18:10:07;;;;;;;3.30;2.50;;;26.70;52.90;;;;;;221098;1263;26519;-54
2022/08/12 18:15:18;;;;;;;3.90;2.40;;;26.70;53.30;;;;;;221686;1262;22617;-55
2022/08/12 18:20:43;;;;;;;;;;;26.60;52.80;;;;;;221311;1262;22499;-53
2022/08/12 18:31:22;;;;;;;;;;;26.60;52.90;;;;;;221372;1262;23883;-55
2022/08/12 18:36:26;;;;;;;3.40;2.20;;;26.60;53.20;;;;;;221202;1262;24083;-54
2022/08/12 18:41:36;;;;;;;3.80;2.60;;;26.60;53.30;;;;;;221742;1265;23895;-56
2022/08/12 18:46:44;;;;;;;3.50;2.50;;;26.60;53.30;;;;;;221525;1262;22524;-55
2022/08/12 18:51:53;;;;;;;2.90;2.40;;;26.60;53.00;;;;;;221275;1263;22744;-52
2022/08/12 18:57:07;;;;;;;3.70;2.10;;;26.60;53.40;;;;;;221276;1263;24303;-54
2022/08/12 19:02:31;;;;;;;3.20;2.40;;;26.60;53.10;;;;;;221330;1262;23196;-58
2022/08/12 19:07:44;;;;;;;3.80;2.70;;;26.50;53.00;;;;;;221511;1262;24539;-54
2022/08/12 19:18:39;;;;;;;3.60;2.50;;;26.50;53.20;;;;;;221345;1263;22562;-54
2022/08/12 19:25:20;;;;;;;3.50;2.50;;;26.50;53.30;;;;;;221215;1262;23945;-53
2022/08/12 19:29:17;;;;;;;2.60;2.10;;;26.50;53.70;;;;;;221511;1262;24199;-55
2022/08/12 19:34:36;;;;;;;2.80;2.40;;;26.50;53.30;;;;;;221536;1265;22577;-55
2022/08/12 19:40:06;;;;;;;4.50;2.70;;;26.50;53.50;;;;;;221183;1262;25417;-54
2022/08/12 19:45:32;;;;;;;3.90;2.60;;;26.50;53.50;;;;;;221215;1262;22633;-54
2022/08/12 19:50:57;;;;;;;3.70;2.50;;;26.50;53.50;;;;;;221187;1265;22541;-54
2022/08/12 19:56:14;;;;;;;3.30;2.40;;;26.50;53.50;;;;;;221284;1265;24297;-55
2022/08/12 20:01:26;;;;;;;3.00;2.40;;;26.40;53.50;;;;;;221212;1265;23935;-51
2022/08/12 20:07:04;;;;;;;2.80;2.50;;;26.40;53.80;;;;;;221329;1264;23924;-54
2022/08/12 20:12:31;;;;;;;3.50;2.60;;;26.40;53.90;;;;;;221565;1261;22525;-53
2022/08/12 20:17:48;;;;;;;3.40;2.60;;;26.40;54.10;;;;;;221410;1265;23060;-54
2022/08/12 20:22:58;;;;;;;5.50;2.60;;;26.40;53.50;;;;;;221403;1265;24306;-52
2022/08/12 20:28:13;;;;;;;3.80;2.70;;;26.40;53.50;;;;;;221245;1261;22578;-55
2022/08/12 20:33:24;;;;;;;3.00;2.60;;;26.40;53.60;;;;;;221092;1265;22548;-55
2022/08/12 20:38:51;;;;;;;4.90;3.10;;;26.40;53.60;;;;;;221653;1265;24312;-55
2022/08/12 20:43:57;;;;;;;4.10;2.90;;;26.40;53.70;;;;;;221477;1265;23925;-54
2022/08/12 20:49:04;;;;;;;3.60;2.60;;;26.40;54.00;;;;;;221238;1265;22532;-55
2022/08/12 20:54:21;;;;;;;3.30;2.70;;;26.40;53.70;;;;;;221127;1265;22876;-56
2022/08/12 20:59:38;;;;;;;4.30;2.70;;;26.40;53.70;;;;;;221185;1265;22538;-53
2022/08/12 21:10:23;;;;;;;4.40;3.00;;;26.30;54.10;;;;;;221084;1265;22548;-56
2022/08/12 21:15:30;;;;;;;4.40;2.80;;;26.30;53.90;;;;;;221402;1265;24670;-54
2022/08/12 21:21:01;;;;;;;2.90;2.50;;;26.30;54.20;;;;;;221348;1265;24747;-60
2022/08/12 21:26:06;;;;;;;4.60;3.20;;;26.30;53.90;;;;;;221075;1265;25353;-57
2022/08/12 21:31:17;;;;;;;4.10;2.70;;;26.30;54.30;;;;;;221367;1265;25409;-53
2022/08/12 21:36:47;;;;;;;3.40;2.80;;;26.30;54.30;;;;;;221142;1265;22999;-56
2022/08/12 21:42:19;;;;;;;3.90;2.90;;;26.30;54.00;;;;;;221499;1265;22996;-54
2022/08/12 21:47:36;;;;;;;3.50;2.90;;;26.30;54.00;;;;;;221128;1262;24252;-55
2022/08/12 21:53:06;;;;;;;3.80;2.80;;;26.30;54.00;;;;;;221158;1263;22605;-55
2022/08/12 21:58:22;;;;;;;3.80;2.70;;;26.30;54.40;;;;;;221151;1265;24442;-55
2022/08/12 22:09:27;;;;;;;3.80;2.90;;;26.20;54.00;;;;;;221138;1265;24395;-53
2022/08/12 22:14:34;;;;;;;5.70;3.00;;;26.20;54.10;;;;;;221330;1261;24476;-57
2022/08/12 22:19:48;;;;;;;4.10;2.90;;;26.20;54.10;;;;;;221394;1262;24268;-53
2022/08/12 22:24:56;;;;;;;4.00;3.00;;;26.20;54.10;;;;;;221215;1262;22598;-55
2022/08/12 22:35:33;;;;;;;4.60;3.30;;;26.20;54.20;;;;;;221394;1265;24401;-55
2022/08/12 22:40:59;;;;;;;3.20;2.90;;;26.20;54.20;;;;;;221425;1262;24280;-58
2022/08/12 22:47:35;;;;;;;4.30;3.10;;;26.20;54.30;;;;;;221355;1265;22789;-56
2022/08/12 22:51:34;;;;;;;4.40;2.70;;;26.20;54.60;;;;;;221467;1265;22724;-53
2022/08/12 22:57:08;;;;;;;3.90;3.00;;;26.20;54.30;;;;;;221237;1265;24358;-57
2022/08/12 23:02:24;;;;;;;4.10;3.00;;;26.20;54.30;;;;;;221303;1265;24552;-55
2022/08/12 23:07:38;;;;;;;4.50;3.10;;;26.10;54.30;;;;;;221143;1265;24190;-56
2022/08/12 23:18:26;;;;;;;3.70;2.70;;;26.20;54.50;;;;;;221734;1262;25445;-54
2022/08/12 23:23:36;;;;;;;4.00;3.10;;;26.10;54.40;;;;;;221426;1262;25356;-55
2022/08/12 23:29:14;;;;;;;4.00;2.70;;;26.10;54.40;;;;;;221346;1262;22543;-56
2022/08/12 23:34:36;;;;;;;3.80;2.90;;;26.10;54.30;;;;;;221362;1262;24402;-56
2022/08/12 23:39:40;;;;;;;3.80;3.00;;;26.10;54.40;;;;;;221377;1262;24246;-55
2022/08/12 23:45:03;;;;;;;3.40;2.70;;;26.10;54.40;;;;;;221440;1265;22540;-55
2022/08/12 23:50:23;;;;;;;4.30;3.10;;;26.10;54.50;;;;;;221141;1262;24437;-56
2022/08/12 23:55:37;;;;;;;5.00;3.10;;;26.10;54.50;;;;;;221311;1262;22567;-53
